sensor_id;sensor_type;location;lat;lon;timestamp;pressure;altitude;pressure_sealevel;temperature;humidity
13934;BME280;7039;52.168;9.866;2023-03-21T00:34:32;100686.69;;;9.03;89.58
13934;BME280;7039;52.168;9.866;2023-03-21T00:40:11;100676.78;;;8.91;89.49
13934;BME280;7039;52.168;9.866;2023-03-21T00:48:30;100676.53;;;8.97;90.28
13934;BME280;7039;52.168;9.866;2023-03-21T01:51:00;100656.03;;;9.32;90.92
13934;BME280;7039;52.168;9.866;2023-03-21T01:56:32;100640.00;;;9.20;91.04
13934;BME280;7039;52.168;9.866;2023-03-21T04:54:03;100567.53;;;9.90;89.43
13934;BME280;7039;52.168;9.866;2023-03-21T04:57:31;100574.94;;;9.99;89.13
13934;BME280;7039;52.168;9.866;2023-03-21T05:00:24;100564.06;;;9.90;88.65
13934;BME280;7039;52.168;9.866;2023-03-21T05:03:32;100560.56;;;9.91;88.85
13934;BME280;7039;52.168;9.866;2023-03-21T05:06:15;100566.00;;;9.86;88.75
13934;BME280;7039;52.168;9.866;2023-03-21T05:19:44;100561.69;;;9.85;88.56
13934;BME280;7039;52.168;9.866;2023-03-21T05:22:27;100577.34;;;10.04;87.97
13934;BME280;7039;52.168;9.866;2023-03-21T05:28:54;100566.97;;;10.02;87.74
13934;BME280;7039;52.168;9.866;2023-03-21T05:31:24;100561.38;;;10.10;87.41
13934;BME280;7039;52.168;9.866;2023-03-21T05:33:51;100572.09;;;10.23;86.68
13934;BME280;7039;52.168;9.866;2023-03-21T05:36:20;100567.88;;;10.20;86.38
13934;BME280;7039;52.168;9.866;2023-03-21T05:38:48;100562.50;;;10.23;86.34
13934;BME280;7039;52.168;9.866;2023-03-21T05:41:17;100558.50;;;10.16;86.11
13934;BME280;7039;52.168;9.866;2023-03-21T05:43:46;100558.50;;;10.35;85.71
13934;BME280;7039;52.168;9.866;2023-03-21T05:46:13;100549.00;;;10.34;85.40
13934;BME280;7039;52.168;9.866;2023-03-21T05:48:42;100555.31;;;10.48;84.98
13934;BME280;7039;52.168;9.866;2023-03-21T05:57:36;100529.69;;;10.19;85.33
13934;BME280;7039;52.168;9.866;2023-03-21T06:00:08;100542.31;;;10.29;85.28
13934;BME280;7039;52.168;9.866;2023-03-21T06:02:38;100547.84;;;10.40;84.54
13934;BME280;7039;52.168;9.866;2023-03-21T06:05:18;100539.88;;;10.24;85.10
13934;BME280;7039;52.168;9.866;2023-03-21T06:08:05;100547.78;;;10.41;84.39
13934;BME280;7039;52.168;9.866;2023-03-21T06:10:34;100541.25;;;10.33;84.32
13934;BME280;7039;52.168;9.866;2023-03-21T06:13:02;100555.00;;;10.36;84.91
13934;BME280;7039;52.168;9.866;2023-03-21T06:23:42;100558.63;;;10.69;83.75
13934;BME280;7039;52.168;9.866;2023-03-21T06:53:31;100554.31;;;10.50;83.50
13934;BME280;7039;52.168;9.866;2023-03-21T06:56:13;100559.34;;;10.72;82.54
13934;BME280;7039;52.168;9.866;2023-03-21T06:58:42;100557.41;;;10.76;82.56
13934;BME280;7039;52.168;9.866;2023-03-21T07:09:56;100562.34;;;10.82;81.68
13934;BME280;7039;52.168;9.866;2023-03-21T07:20:33;100559.78;;;10.80;81.39
13934;BME280;7039;52.168;9.866;2023-03-21T07:23:20;100558.88;;;10.99;80.95
13934;BME280;7039;52.168;9.866;2023-03-21T07:29:27;100556.97;;;10.85;81.55
13934;BME280;7039;52.168;9.866;2023-03-21T07:32:25;100554.22;;;10.88;80.84
13934;BME280;7039;52.168;9.866;2023-03-21T07:35:09;100550.06;;;11.01;80.51
13934;BME280;7039;52.168;9.866;2023-03-21T07:37:55;100549.38;;;10.98;80.62
13934;BME280;7039;52.168;9.866;2023-03-21T07:44:20;100536.47;;;10.95;80.49
13934;BME280;7039;52.168;9.866;2023-03-21T08:49:09;100545.69;;;12.18;76.96
13934;BME280;7039;52.168;9.866;2023-03-21T08:51:39;100537.16;;;11.98;77.52
13934;BME280;7039;52.168;9.866;2023-03-21T08:54:24;100534.84;;;12.24;76.78
13934;BME280;7039;52.168;9.866;2023-03-21T09:04:39;100543.75;;;12.67;75.43
13934;BME280;7039;52.168;9.866;2023-03-21T09:14:54;100529.69;;;12.54;75.15
13934;BME280;7039;52.168;9.866;2023-03-21T09:17:24;100530.56;;;12.69;75.07
13934;BME280;7039;52.168;9.866;2023-03-21T09:22:30;100534.53;;;12.60;75.16
13934;BME280;7039;52.168;9.866;2023-03-21T09:30:00;100523.31;;;12.74;74.88
13934;BME280;7039;52.168;9.866;2023-03-21T09:32:27;100530.03;;;12.78;74.61
13934;BME280;7039;52.168;9.866;2023-03-21T09:34:54;100533.03;;;12.86;74.15
13934;BME280;7039;52.168;9.866;2023-03-21T09:37:21;100534.09;;;12.98;74.54
13934;BME280;7039;52.168;9.866;2023-03-21T09:39:49;100533.03;;;12.86;73.91
13934;BME280;7039;52.168;9.866;2023-03-21T09:42:24;100526.69;;;12.90;74.08
13934;BME280;7039;52.168;9.866;2023-03-21T09:45:02;100533.66;;;13.06;73.39
13934;BME280;7039;52.168;9.866;2023-03-21T09:47:37;100536.97;;;13.52;73.26
13934;BME280;7039;52.168;9.866;2023-03-21T09:50:12;100533.97;;;13.30;72.21
13934;BME280;7039;52.168;9.866;2023-03-21T09:52:44;100532.09;;;13.46;71.72
13934;BME280;7039;52.168;9.866;2023-03-21T09:55:17;100526.88;;;13.32;71.08
13934;BME280;7039;52.168;9.866;2023-03-21T09:57:47;100538.28;;;13.45;71.40
13934;BME280;7039;52.168;9.866;2023-03-21T10:00:20;100526.00;;;13.74;71.16
13934;BME280;7039;52.168;9.866;2023-03-21T10:02:51;100530.84;;;13.81;71.15
13934;BME280;7039;52.168;9.866;2023-03-21T10:05:20;100523.56;;;13.71;69.85
13934;BME280;7039;52.168;9.866;2023-03-21T10:07:52;100533.84;;;13.89;70.21
13934;BME280;7039;52.168;9.866;2023-03-21T10:10:23;100533.50;;;14.08;69.83
13934;BME280;7039;52.168;9.866;2023-03-21T10:12:52;100529.16;;;13.94;70.67
13934;BME280;7039;52.168;9.866;2023-03-21T10:15:21;100528.97;;;13.97;71.27
13934;BME280;7039;52.168;9.866;2023-03-21T10:17:52;100523.41;;;13.74;70.37
13934;BME280;7039;52.168;9.866;2023-03-21T10:20:22;100521.41;;;13.78;70.18
13934;BME280;7039;52.168;9.866;2023-03-21T10:22:51;100516.38;;;13.75;70.74
13934;BME280;7039;52.168;9.866;2023-03-21T10:25:23;100517.41;;;13.72;72.16
13934;BME280;7039;52.168;9.866;2023-03-21T10:27:51;100519.63;;;13.21;72.31
13934;BME280;7039;52.168;9.866;2023-03-21T10:30:25;100524.34;;;13.30;72.51
13934;BME280;7039;52.168;9.866;2023-03-21T10:32:56;100517.06;;;12.91;74.34
13934;BME280;7039;52.168;9.866;2023-03-21T10:35:26;100525.25;;;12.40;77.62
13934;BME280;7039;52.168;9.866;2023-03-21T10:37:53;100523.66;;;12.22;80.20
13934;BME280;7039;52.168;9.866;2023-03-21T10:40:19;100522.69;;;12.39;80.85
13934;BME280;7039;52.168;9.866;2023-03-21T10:42:47;100519.78;;;12.59;81.63
13934;BME280;7039;52.168;9.866;2023-03-21T10:45:16;100515.81;;;12.68;78.62
13934;BME280;7039;52.168;9.866;2023-03-21T10:47:47;100521.00;;;13.12;77.69
13934;BME280;7039;52.168;9.866;2023-03-21T10:50:15;100520.03;;;13.44;78.24
13934;BME280;7039;52.168;9.866;2023-03-21T10:52:45;100513.50;;;13.36;77.26
13934;BME280;7039;52.168;9.866;2023-03-21T10:55:20;100514.03;;;13.42;77.81
13934;BME280;7039;52.168;9.866;2023-03-21T10:57:54;100508.09;;;13.09;77.73
13934;BME280;7039;52.168;9.866;2023-03-21T11:00:25;100508.25;;;13.36;79.13
13934;BME280;7039;52.168;9.866;2023-03-21T11:02:53;100505.06;;;13.31;78.72
13934;BME280;7039;52.168;9.866;2023-03-21T11:05:21;100516.72;;;13.11;78.38
13934;BME280;7039;52.168;9.866;2023-03-21T11:07:57;100513.97;;;13.29;78.77
13934;BME280;7039;52.168;9.866;2023-03-21T11:10:28;100513.63;;;13.05;79.03
13934;BME280;7039;52.168;9.866;2023-03-21T11:13:01;100504.81;;;12.91;80.75
13934;BME280;7039;52.168;9.866;2023-03-21T11:15:30;100502.66;;;12.98;80.21
13934;BME280;7039;52.168;9.866;2023-03-21T11:17:57;100498.19;;;12.86;81.03
13934;BME280;7039;52.168;9.866;2023-03-21T11:20:25;100502.47;;;13.01;79.98
13934;BME280;7039;52.168;9.866;2023-03-21T11:22:55;100499.28;;;12.82;81.85
13934;BME280;7039;52.168;9.866;2023-03-21T11:25:26;100502.94;;;12.93;80.96
13934;BME280;7039;52.168;9.866;2023-03-21T11:27:58;100493.97;;;12.98;80.34
13934;BME280;7039;52.168;9.866;2023-03-21T11:30:30;100501.28;;;13.07;80.21
13934;BME280;7039;52.168;9.866;2023-03-21T11:32:59;100495.84;;;13.10;80.57
13934;BME280;7039;52.168;9.866;2023-03-21T11:35:32;100496.81;;;13.23;79.93
13934;BME280;7039;52.168;9.866;2023-03-21T11:37:59;100489.16;;;13.06;80.06
13934;BME280;7039;52.168;9.866;2023-03-21T11:40:27;100484.47;;;13.25;79.36
13934;BME280;7039;52.168;9.866;2023-03-21T11:42:55;100480.97;;;12.96;81.42
13934;BME280;7039;52.168;9.866;2023-03-21T11:45:25;100480.81;;;12.99;81.17
13934;BME280;7039;52.168;9.866;2023-03-21T11:47:54;100477.13;;;12.87;80.89
13934;BME280;7039;52.168;9.866;2023-03-21T11:50:28;100470.63;;;13.09;80.63
13934;BME280;7039;52.168;9.866;2023-03-21T11:53:12;100482.41;;;13.16;81.29
13934;BME280;7039;52.168;9.866;2023-03-21T11:55:49;100476.78;;;13.22;80.26
13934;BME280;7039;52.168;9.866;2023-03-21T11:58:29;100469.97;;;13.20;80.58
13934;BME280;7039;52.168;9.866;2023-03-21T12:01:04;100464.94;;;13.31;80.22
13934;BME280;7039;52.168;9.866;2023-03-21T12:04:02;100473.00;;;13.42;80.79
13934;BME280;7039;52.168;9.866;2023-03-21T12:06:34;100465.47;;;13.22;80.24
13934;BME280;7039;52.168;9.866;2023-03-21T12:09:15;100466.06;;;13.41;79.80
13934;BME280;7039;52.168;9.866;2023-03-21T12:11:51;100457.28;;;13.42;79.06
13934;BME280;7039;52.168;9.866;2023-03-21T12:14:29;100461.69;;;13.69;78.80
13934;BME280;7039;52.168;9.866;2023-03-21T12:17:12;100459.03;;;13.56;78.91
13934;BME280;7039;52.168;9.866;2023-03-21T12:19:53;100452.47;;;13.20;78.73
13934;BME280;7039;52.168;9.866;2023-03-21T12:22:27;100453.13;;;13.09;80.01
13934;BME280;7039;52.168;9.866;2023-03-21T12:24:56;100455.09;;;13.20;79.43
13934;BME280;7039;52.168;9.866;2023-03-21T12:27:34;100447.06;;;12.94;80.29
13934;BME280;7039;52.168;9.866;2023-03-21T12:30:23;100444.44;;;13.09;81.34
13934;BME280;7039;52.168;9.866;2023-03-21T12:33:13;100434.25;;;13.04;81.96
13934;BME280;7039;52.168;9.866;2023-03-21T12:35:53;100430.84;;;12.73;83.33
13934;BME280;7039;52.168;9.866;2023-03-21T12:38:29;100436.47;;;12.82;83.74
13934;BME280;7039;52.168;9.866;2023-03-21T12:41:27;100437.28;;;12.68;84.18
13934;BME280;7039;52.168;9.866;2023-03-21T12:44:00;100429.59;;;12.50;86.15
13934;BME280;7039;52.168;9.866;2023-03-21T12:46:33;100439.66;;;12.87;85.10
13934;BME280;7039;52.168;9.866;2023-03-21T12:49:08;100435.34;;;13.14;84.55
13934;BME280;7039;52.168;9.866;2023-03-21T12:51:42;100427.38;;;12.87;85.02
13934;BME280;7039;52.168;9.866;2023-03-21T12:54:14;100431.16;;;12.98;84.43
13934;BME280;7039;52.168;9.866;2023-03-21T12:56:47;100431.50;;;12.91;85.73
13934;BME280;7039;52.168;9.866;2023-03-21T12:59:22;100419.38;;;13.05;84.57
13934;BME280;7039;52.168;9.866;2023-03-21T13:01:54;100428.91;;;13.06;84.93
13934;BME280;7039;52.168;9.866;2023-03-21T13:04:42;100426.19;;;12.93;84.50
13934;BME280;7039;52.168;9.866;2023-03-21T13:07:14;100426.75;;;12.98;85.02
13934;BME280;7039;52.168;9.866;2023-03-21T13:09:42;100421.25;;;12.74;84.87
13934;BME280;7039;52.168;9.866;2023-03-21T13:12:32;100410.78;;;12.88;84.79
13934;BME280;7039;52.168;9.866;2023-03-21T13:15:12;100404.31;;;12.80;85.49
13934;BME280;7039;52.168;9.866;2023-03-21T13:17:45;100406.84;;;12.95;85.32
13934;BME280;7039;52.168;9.866;2023-03-21T13:20:22;100393.00;;;12.79;85.29
13934;BME280;7039;52.168;9.866;2023-03-21T13:22:51;100395.50;;;12.81;84.84
13934;BME280;7039;52.168;9.866;2023-03-21T13:25:19;100397.72;;;12.44;85.55
13934;BME280;7039;52.168;9.866;2023-03-21T13:27:53;100400.03;;;12.79;85.22
13934;BME280;7039;52.168;9.866;2023-03-21T13:30:21;100396.09;;;12.86;85.06
13934;BME280;7039;52.168;9.866;2023-03-21T13:32:53;100391.69;;;12.86;85.01
13934;BME280;7039;52.168;9.866;2023-03-21T13:35:23;100389.25;;;12.69;85.23
13934;BME280;7039;52.168;9.866;2023-03-21T13:37:55;100401.50;;;12.97;85.15
13934;BME280;7039;52.168;9.866;2023-03-21T13:40:24;100387.69;;;12.95;84.86
13934;BME280;7039;52.168;9.866;2023-03-21T13:42:53;100387.22;;;12.88;85.46
13934;BME280;7039;52.168;9.866;2023-03-21T13:45:27;100379.81;;;12.66;86.07
13934;BME280;7039;52.168;9.866;2023-03-21T13:47:56;100389.28;;;12.83;86.22
13934;BME280;7039;52.168;9.866;2023-03-21T13:50:32;100376.63;;;12.47;85.77
13934;BME280;7039;52.168;9.866;2023-03-21T13:53:18;100379.44;;;12.58;86.87
13934;BME280;7039;52.168;9.866;2023-03-21T13:55:46;100376.00;;;12.72;86.21
13934;BME280;7039;52.168;9.866;2023-03-21T13:58:31;100366.81;;;12.65;86.16
13934;BME280;7039;52.168;9.866;2023-03-21T14:01:32;100370.84;;;12.70;86.61
13934;BME280;7039;52.168;9.866;2023-03-21T14:04:05;100355.88;;;12.44;86.94
13934;BME280;7039;52.168;9.866;2023-03-21T14:06:41;100358.19;;;12.34;88.30
13934;BME280;7039;52.168;9.866;2023-03-21T14:09:16;100356.81;;;12.57;88.49
13934;BME280;7039;52.168;9.866;2023-03-21T14:11:45;100364.19;;;12.36;88.96
13934;BME280;7039;52.168;9.866;2023-03-21T14:14:12;100356.50;;;12.33;89.36
13934;BME280;7039;52.168;9.866;2023-03-21T14:16:40;100362.47;;;12.35;89.12
13934;BME280;7039;52.168;9.866;2023-03-21T14:19:08;100352.63;;;12.54;87.93
13934;BME280;7039;52.168;9.866;2023-03-21T14:21:44;100350.66;;;12.58;87.87
13934;BME280;7039;52.168;9.866;2023-03-21T14:24:12;100347.94;;;12.45;88.09
13934;BME280;7039;52.168;9.866;2023-03-21T14:26:41;100355.31;;;12.53;88.13
13934;BME280;7039;52.168;9.866;2023-03-21T14:29:15;100350.84;;;12.55;88.06
13934;BME280;7039;52.168;9.866;2023-03-21T14:31:44;100350.22;;;12.21;87.95
13934;BME280;7039;52.168;9.866;2023-03-21T14:34:12;100350.44;;;12.32;87.71
13934;BME280;7039;52.168;9.866;2023-03-21T14:36:43;100348.66;;;12.33;88.73
13934;BME280;7039;52.168;9.866;2023-03-21T14:39:13;100347.19;;;12.43;88.34
13934;BME280;7039;52.168;9.866;2023-03-21T14:41:44;100338.16;;;12.19;87.85
13934;BME280;7039;52.168;9.866;2023-03-21T14:44:15;100342.09;;;12.26;87.93
13934;BME280;7039;52.168;9.866;2023-03-21T14:46:42;100331.75;;;12.39;88.30
13934;BME280;7039;52.168;9.866;2023-03-21T14:49:16;100331.13;;;12.49;88.53
13934;BME280;7039;52.168;9.866;2023-03-21T14:51:44;100334.22;;;12.56;87.44
13934;BME280;7039;52.168;9.866;2023-03-21T14:54:14;100328.59;;;12.77;86.42
13934;BME280;7039;52.168;9.866;2023-03-21T14:56:44;100324.31;;;12.61;86.76
13934;BME280;7039;52.168;9.866;2023-03-21T14:59:13;100321.22;;;12.54;86.88
13934;BME280;7039;52.168;9.866;2023-03-21T15:01:41;100322.53;;;12.90;86.09
13934;BME280;7039;52.168;9.866;2023-03-21T15:04:11;100328.97;;;12.70;86.46
13934;BME280;7039;52.168;9.866;2023-03-21T15:06:54;100327.91;;;12.87;85.91
13934;BME280;7039;52.168;9.866;2023-03-21T15:09:27;100324.56;;;12.71;86.05
13934;BME280;7039;52.168;9.866;2023-03-21T15:11:56;100317.22;;;12.63;85.87
13934;BME280;7039;52.168;9.866;2023-03-21T15:14:29;100325.88;;;12.78;86.84
13934;BME280;7039;52.168;9.866;2023-03-21T15:16:58;100316.75;;;12.57;86.87
13934;BME280;7039;52.168;9.866;2023-03-21T15:19:30;100303.84;;;12.53;87.26
13934;BME280;7039;52.168;9.866;2023-03-21T15:22:03;100309.91;;;12.54;86.71
13934;BME280;7039;52.168;9.866;2023-03-21T15:24:34;100309.16;;;12.66;86.30
13934;BME280;7039;52.168;9.866;2023-03-21T15:27:04;100303.63;;;12.71;86.36
13934;BME280;7039;52.168;9.866;2023-03-21T15:29:31;100299.63;;;12.80;85.65
13934;BME280;7039;52.168;9.866;2023-03-21T15:32:03;100294.22;;;12.68;85.64
13934;BME280;7039;52.168;9.866;2023-03-21T15:34:29;100284.97;;;12.63;85.88
13934;BME280;7039;52.168;9.866;2023-03-21T15:36:57;100289.44;;;12.75;85.44
13934;BME280;7039;52.168;9.866;2023-03-21T15:39:28;100280.19;;;12.84;85.03
13934;BME280;7039;52.168;9.866;2023-03-21T15:41:57;100272.34;;;12.69;85.08
13934;BME280;7039;52.168;9.866;2023-03-21T15:44:25;100267.94;;;12.56;85.62
13934;BME280;7039;52.168;9.866;2023-03-21T15:46:53;100264.22;;;12.45;85.49
13934;BME280;7039;52.168;9.866;2023-03-21T15:49:24;100250.38;;;12.58;85.66
13934;BME280;7039;52.168;9.866;2023-03-21T15:51:54;100250.47;;;12.42;85.69
13934;BME280;7039;52.168;9.866;2023-03-21T15:54:23;100258.72;;;12.36;86.22
13934;BME280;7039;52.168;9.866;2023-03-21T15:56:53;100249.16;;;12.49;85.98
13934;BME280;7039;52.168;9.866;2023-03-21T15:59:23;100246.75;;;12.46;86.28
13934;BME280;7039;52.168;9.866;2023-03-21T16:01:50;100244.13;;;12.60;86.08
13934;BME280;7039;52.168;9.866;2023-03-21T16:04:17;100246.66;;;12.62;86.05
13934;BME280;7039;52.168;9.866;2023-03-21T16:06:51;100233.50;;;12.35;86.51
13934;BME280;7039;52.168;9.866;2023-03-21T16:09:18;100229.38;;;12.16;87.71
13934;BME280;7039;52.168;9.866;2023-03-21T16:11:49;100231.72;;;12.35;86.38
13934;BME280;7039;52.168;9.866;2023-03-21T16:14:18;100236.19;;;12.33;86.14
13934;BME280;7039;52.168;9.866;2023-03-21T16:16:46;100230.78;;;12.36;86.02
13934;BME280;7039;52.168;9.866;2023-03-21T16:19:15;100227.41;;;12.48;85.23
13934;BME280;7039;52.168;9.866;2023-03-21T16:21:42;100219.28;;;12.53;84.88
13934;BME280;7039;52.168;9.866;2023-03-21T16:24:09;100205.75;;;12.32;85.65
13934;BME280;7039;52.168;9.866;2023-03-21T16:26:40;100200.72;;;12.29;85.09
13934;BME280;7039;52.168;9.866;2023-03-21T16:29:06;100199.63;;;12.60;84.54
13934;BME280;7039;52.168;9.866;2023-03-21T16:31:35;100203.38;;;12.70;84.48
13934;BME280;7039;52.168;9.866;2023-03-21T16:34:02;100203.94;;;12.61;84.63
13934;BME280;7039;52.168;9.866;2023-03-21T16:36:31;100204.81;;;12.47;84.51
13934;BME280;7039;52.168;9.866;2023-03-21T16:39:00;100209.75;;;12.52;84.72
13934;BME280;7039;52.168;9.866;2023-03-21T16:41:29;100208.94;;;12.23;84.98
13934;BME280;7039;52.168;9.866;2023-03-21T16:43:56;100215.03;;;12.38;84.39
13934;BME280;7039;52.168;9.866;2023-03-21T16:46:24;100204.53;;;12.52;84.01
13934;BME280;7039;52.168;9.866;2023-03-21T16:48:54;100216.94;;;12.48;84.54
13934;BME280;7039;52.168;9.866;2023-03-21T16:51:23;100220.59;;;12.46;84.05
13934;BME280;7039;52.168;9.866;2023-03-21T16:53:51;100223.88;;;12.35;84.51
13934;BME280;7039;52.168;9.866;2023-03-21T16:56:20;100213.41;;;12.21;85.40
13934;BME280;7039;52.168;9.866;2023-03-21T16:58:48;100208.94;;;12.23;85.40
13934;BME280;7039;52.168;9.866;2023-03-21T17:01:17;100199.03;;;12.14;84.46
13934;BME280;7039;52.168;9.866;2023-03-21T17:03:44;100202.56;;;12.12;84.71
13934;BME280;7039;52.168;9.866;2023-03-21T17:06:14;100194.19;;;12.22;84.73
13934;BME280;7039;52.168;9.866;2023-03-21T17:08:41;100201.34;;;11.89;85.94
13934;BME280;7039;52.168;9.866;2023-03-21T17:11:09;100202.31;;;12.03;85.61
13934;BME280;7039;52.168;9.866;2023-03-21T17:13:36;100208.94;;;12.23;85.00
13934;BME280;7039;52.168;9.866;2023-03-21T17:16:03;100216.97;;;12.20;85.61
13934;BME280;7039;52.168;9.866;2023-03-21T17:18:30;100221.34;;;12.48;84.02
13934;BME280;7039;52.168;9.866;2023-03-21T17:20:57;100222.00;;;12.51;83.31
13934;BME280;7039;52.168;9.866;2023-03-21T17:23:25;100223.81;;;12.78;82.54
13934;BME280;7039;52.168;9.866;2023-03-21T17:25:51;100224.16;;;12.86;82.25
13934;BME280;7039;52.168;9.866;2023-03-21T17:28:18;100216.19;;;12.61;81.91
13934;BME280;7039;52.168;9.866;2023-03-21T17:30:44;100222.88;;;12.79;82.05
13934;BME280;7039;52.168;9.866;2023-03-21T17:33:11;100220.38;;;13.05;81.18
13934;BME280;7039;52.168;9.866;2023-03-21T17:35:38;100223.44;;;13.11;81.23
13934;BME280;7039;52.168;9.866;2023-03-21T17:38:09;100220.97;;;13.23;80.38
13934;BME280;7039;52.168;9.866;2023-03-21T17:40:39;100220.00;;;13.11;81.08
13934;BME280;7039;52.168;9.866;2023-03-21T17:43:13;100208.91;;;12.93;81.50
13934;BME280;7039;52.168;9.866;2023-03-21T17:45:40;100218.13;;;12.71;81.65
13934;BME280;7039;52.168;9.866;2023-03-21T17:48:07;100221.69;;;12.70;81.93
13934;BME280;7039;52.168;9.866;2023-03-21T17:50:33;100225.59;;;12.78;82.30
13934;BME280;7039;52.168;9.866;2023-03-21T17:53:01;100220.78;;;12.57;82.69
13934;BME280;7039;52.168;9.866;2023-03-21T17:55:28;100223.34;;;12.71;82.34
13934;BME280;7039;52.168;9.866;2023-03-21T17:57:57;100219.72;;;12.74;82.25
13934;BME280;7039;52.168;9.866;2023-03-21T18:00:27;100218.03;;;12.73;82.32
13934;BME280;7039;52.168;9.866;2023-03-21T18:02:55;100217.75;;;12.78;81.96
13934;BME280;7039;52.168;9.866;2023-03-21T18:05:22;100227.13;;;12.67;81.85
13934;BME280;7039;52.168;9.866;2023-03-21T18:07:51;100230.03;;;12.34;82.49
13934;BME280;7039;52.168;9.866;2023-03-21T18:10:20;100234.88;;;12.54;82.25
13934;BME280;7039;52.168;9.866;2023-03-21T18:12:47;100227.13;;;12.53;81.98
13934;BME280;7039;52.168;9.866;2023-03-21T18:15:18;100236.03;;;12.36;82.28
13934;BME280;7039;52.168;9.866;2023-03-21T18:17:45;100218.66;;;12.21;83.07
13934;BME280;7039;52.168;9.866;2023-03-21T18:20:14;100219.84;;;12.44;82.47
13934;BME280;7039;52.168;9.866;2023-03-21T18:22:41;100216.19;;;12.03;83.21
13934;BME280;7039;52.168;9.866;2023-03-21T18:25:08;100216.88;;;12.21;82.71
13934;BME280;7039;52.168;9.866;2023-03-21T18:27:35;100218.25;;;11.98;83.42
13934;BME280;7039;52.168;9.866;2023-03-21T18:30:03;100214.53;;;12.17;82.97
13934;BME280;7039;52.168;9.866;2023-03-21T18:32:31;100207.63;;;12.16;82.57
13934;BME280;7039;52.168;9.866;2023-03-21T18:34:58;100211.38;;;11.97;83.25
13934;BME280;7039;52.168;9.866;2023-03-21T18:37:24;100215.22;;;12.06;82.97
13934;BME280;7039;52.168;9.866;2023-03-21T18:39:51;100226.78;;;12.16;82.61
13934;BME280;7039;52.168;9.866;2023-03-21T18:42:18;100224.31;;;11.99;82.97
13934;BME280;7039;52.168;9.866;2023-03-21T18:44:45;100231.53;;;12.24;82.02
13934;BME280;7039;52.168;9.866;2023-03-21T18:47:12;100236.75;;;12.24;81.54
13934;BME280;7039;52.168;9.866;2023-03-21T18:49:41;100228.34;;;12.04;82.30
13934;BME280;7039;52.168;9.866;2023-03-21T18:52:07;100229.88;;;12.08;82.32
13934;BME280;7039;52.168;9.866;2023-03-21T18:54:34;100231.81;;;12.05;82.50
13934;BME280;7039;52.168;9.866;2023-03-21T18:57:02;100232.84;;;12.02;81.96
13934;BME280;7039;52.168;9.866;2023-03-21T18:59:30;100230.41;;;11.99;81.93
13934;BME280;7039;52.168;9.866;2023-03-21T19:01:59;100233.63;;;11.74;82.41
13934;BME280;7039;52.168;9.866;2023-03-21T19:04:25;100235.75;;;11.67;82.61
13934;BME280;7039;52.168;9.866;2023-03-21T19:06:54;100233.78;;;11.71;82.44
13934;BME280;7039;52.168;9.866;2023-03-21T19:09:22;100229.84;;;11.64;82.35
13934;BME280;7039;52.168;9.866;2023-03-21T19:11:48;100229.50;;;11.70;82.65
13934;BME280;7039;52.168;9.866;2023-03-21T19:14:16;100235.25;;;11.91;81.81
13934;BME280;7039;52.168;9.866;2023-03-21T19:16:43;100236.44;;;11.85;81.57
13934;BME280;7039;52.168;9.866;2023-03-21T19:19:10;100230.59;;;11.66;82.16
13934;BME280;7039;52.168;9.866;2023-03-21T19:21:36;100232.84;;;11.72;81.86
13934;BME280;7039;52.168;9.866;2023-03-21T19:24:05;100242.66;;;11.83;81.71
13934;BME280;7039;52.168;9.866;2023-03-21T19:26:31;100242.72;;;11.97;80.65
13934;BME280;7039;52.168;9.866;2023-03-21T19:28:58;100234.34;;;11.76;81.33
13934;BME280;7039;52.168;9.866;2023-03-21T19:31:24;100234.81;;;11.83;81.15
13934;BME280;7039;52.168;9.866;2023-03-21T19:33:51;100240.56;;;11.89;81.18
13934;BME280;7039;52.168;9.866;2023-03-21T19:36:17;100253.09;;;11.68;81.49
13934;BME280;7039;52.168;9.866;2023-03-21T19:38:44;100245.19;;;11.84;80.92
13934;BME280;7039;52.168;9.866;2023-03-21T19:41:12;100232.94;;;11.70;81.50
13934;BME280;7039;52.168;9.866;2023-03-21T19:43:38;100234.88;;;11.67;81.56
13934;BME280;7039;52.168;9.866;2023-03-21T19:46:05;100235.94;;;11.79;81.35
13934;BME280;7039;52.168;9.866;2023-03-21T19:48:32;100241.91;;;11.81;81.07
13934;BME280;7039;52.168;9.866;2023-03-21T19:50:59;100250.72;;;11.94;80.49
13934;BME280;7039;52.168;9.866;2023-03-21T19:53:26;100241.66;;;11.55;81.12
13934;BME280;7039;52.168;9.866;2023-03-21T19:55:53;100246.06;;;11.55;81.48
13934;BME280;7039;52.168;9.866;2023-03-21T19:58:21;100237.13;;;11.59;81.11
13934;BME280;7039;52.168;9.866;2023-03-21T20:00:48;100238.63;;;11.63;81.12
13934;BME280;7039;52.168;9.866;2023-03-21T20:03:14;100248.81;;;11.67;80.68
13934;BME280;7039;52.168;9.866;2023-03-21T20:05:43;100235.75;;;11.82;80.34
13934;BME280;7039;52.168;9.866;2023-03-21T20:08:10;100227.81;;;11.39;81.62
13934;BME280;7039;52.168;9.866;2023-03-21T20:10:36;100234.63;;;11.41;81.11
13934;BME280;7039;52.168;9.866;2023-03-21T20:13:03;100227.47;;;11.45;81.28
13934;BME280;7039;52.168;9.866;2023-03-21T20:15:31;100235.03;;;11.49;81.54
13934;BME280;7039;52.168;9.866;2023-03-21T20:17:58;100229.50;;;11.24;82.01
13934;BME280;7039;52.168;9.866;2023-03-21T20:20:24;100217.59;;;11.20;82.14
13934;BME280;7039;52.168;9.866;2023-03-21T20:22:51;100216.97;;;11.15;82.25
13934;BME280;7039;52.168;9.866;2023-03-21T20:25:18;100217.31;;;11.24;81.93
13934;BME280;7039;52.168;9.866;2023-03-21T20:27:45;100206.38;;;11.18;81.98
13934;BME280;7039;52.168;9.866;2023-03-21T20:30:14;100211.25;;;11.08;82.26
13934;BME280;7039;52.168;9.866;2023-03-21T20:32:44;100213.78;;;11.10;82.42
13934;BME280;7039;52.168;9.866;2023-03-21T20:35:13;100216.41;;;11.10;82.21
13934;BME280;7039;52.168;9.866;2023-03-21T20:37:41;100226.78;;;11.11;82.17
13934;BME280;7039;52.168;9.866;2023-03-21T20:40:12;100224.16;;;11.11;82.06
13934;BME280;7039;52.168;9.866;2023-03-21T20:42:40;100212.97;;;11.09;81.55
13934;BME280;7039;52.168;9.866;2023-03-21T20:45:08;100214.88;;;11.05;81.97
13934;BME280;7039;52.168;9.866;2023-03-21T20:47:36;100224.06;;;11.13;81.70